createdAt,value
2022-11-28T00:00:08.442Z,6.8
2022-11-28T00:50:11.918Z,6.6
2022-11-28T01:10:13.180Z,6.7
2022-11-28T01:20:14.105Z,6.7
2022-11-28T01:30:14.832Z,6.8
2022-11-28T01:40:15.014Z,6.8
2022-11-28T02:00:15.744Z,6.9
2022-11-28T02:10:16.410Z,7
2022-11-28T02:20:16.563Z,7
2022-11-28T02:30:17.510Z,7.1
2022-11-28T02:40:18.184Z,7.1
2022-11-28T02:50:19.228Z,7.1
2022-11-28T03:00:20.183Z,7.1
2022-11-28T03:10:21.228Z,7.2
2022-11-28T03:20:21.719Z,7.2
2022-11-28T03:30:22.456Z,7.1
2022-11-28T03:50:23.931Z,7
2022-11-28T04:00:24.526Z,6.9
2022-11-28T04:20:26.388Z,6.9
2022-11-28T04:30:27.466Z,6.8
2022-11-28T04:40:27.635Z,6.8
2022-11-28T04:50:28.224Z,6.8
2022-11-28T05:00:29.304Z,6.8
2022-11-28T05:10:29.591Z,6.8
2022-11-28T05:20:30.673Z,6.8
2022-11-28T05:30:31.574Z,6.8
2022-11-28T05:40:32.534Z,6.8
2022-11-28T05:50:37.068Z,6.8
2022-11-28T06:00:33.956Z,6.8
2022-11-28T06:10:34.001Z,6.8
2022-11-28T06:20:34.560Z,6.8
2022-11-28T06:30:34.714Z,6.7
2022-11-28T06:40:35.290Z,6.7
2022-11-28T06:50:35.819Z,6.7
2022-11-28T07:00:36.287Z,6.6
2022-11-28T07:10:36.901Z,6.5
2022-11-28T07:20:37.279Z,6.5
2022-11-28T07:40:38.617Z,6.5
2022-11-28T07:50:39.026Z,6.5
2022-11-28T08:00:39.512Z,6.6
2022-11-28T08:20:40.345Z,6.8
2022-11-28T08:50:46.649Z,7
2022-11-28T09:00:42.868Z,7.1
2022-11-28T09:10:43.861Z,7.2
2022-11-28T09:20:44.107Z,7.3
2022-11-28T09:30:45.161Z,7.4
2022-11-28T09:40:45.898Z,7.5
2022-11-28T09:50:46.953Z,7.6
2022-11-28T10:00:50.285Z,7.7
2022-11-28T10:10:47.987Z,7.7
2022-11-28T10:30:49.343Z,7.7
2022-11-28T10:40:49.833Z,7.8
2022-11-28T11:00:50.782Z,7.8
2022-11-28T11:10:51.618Z,7.8
2022-11-28T11:20:52.023Z,7.7
2022-11-28T11:30:53.039Z,7.7
2022-11-28T11:40:53.678Z,7.7
2022-11-28T11:50:54.481Z,7.7
2022-11-28T12:00:55.293Z,7.6
2022-11-28T12:10:56.196Z,7.6
2022-11-28T12:20:56.915Z,7.7
2022-11-28T13:10:59.105Z,7.7
2022-11-28T14:31:03.748Z,7.7
2022-11-28T14:41:04.480Z,7.6
2022-11-28T14:51:05.042Z,7.7
2022-11-28T15:01:05.994Z,7.7
2022-11-28T15:11:06.371Z,7.6
2022-11-28T15:31:07.001Z,7.6
2022-11-28T16:11:09.591Z,7.6
2022-11-28T16:31:10.626Z,7.5
2022-11-28T16:41:11.616Z,7.5
2022-11-28T16:51:12.353Z,7.5
2022-11-28T17:01:13.028Z,7.5
2022-11-28T17:11:13.227Z,7.5
2022-11-28T17:21:14.159Z,7.6
2022-11-28T17:41:15.149Z,7.6
2022-11-28T17:51:15.375Z,7.6
2022-11-28T18:01:15.859Z,7.6
2022-11-28T18:11:16.132Z,7.6
2022-11-28T18:21:16.519Z,7.7
2022-11-28T18:31:17.434Z,7.7
2022-11-28T18:41:17.905Z,7.7
2022-11-28T18:51:18.587Z,7.7
2022-11-28T19:01:19.104Z,7.7
2022-11-28T19:11:19.727Z,7.8
2022-11-28T19:21:20.088Z,7.8
2022-11-28T19:31:20.554Z,7.8
2022-11-28T19:41:21.295Z,7.9
2022-11-28T20:01:21.907Z,7.9
2022-11-28T20:11:22.701Z,7.9
2022-11-28T20:21:23.565Z,7.9
2022-11-28T20:31:24.197Z,7.9
2022-11-28T20:41:24.870Z,7.9
2022-11-28T20:51:25.114Z,7.9
2022-11-28T21:01:26.194Z,7.9
2022-11-28T21:21:27.606Z,8
2022-11-28T21:31:28.246Z,8
2022-11-28T21:41:29.148Z,7.9
2022-11-28T21:51:29.623Z,8
2022-11-28T22:01:30.656Z,7.9
2022-11-28T22:11:30.854Z,7.9
2022-11-28T22:21:52.071Z,8
2022-11-28T22:31:32.714Z,7.9
2022-11-28T22:41:33.007Z,8
2022-11-28T22:51:33.642Z,8
2022-11-28T23:01:34.346Z,8
2022-11-28T23:11:34.801Z,8
2022-11-28T23:21:35.086Z,8
2022-11-28T23:31:35.464Z,8
2022-11-28T23:41:35.795Z,8
2022-11-28T23:51:36.664Z,8
